Aeroporto :
LOGIN :

Iscrizione | Disclaimer

   EN    FR    IT 

 










Sommario :    VFR   VFR Marginale   IFR   IFR Intensivo   IFR Molto Intensivo
Visibilità : 
Base nubi : 
>= 8 km
>= 3000ft
5 / 8 km
1000 / 3000 ft
1500m / 5 km
500 / 1000 ft
800 / 1500m
200 / 500 ft
< 800m
< 200 ft
Simboli :   Temporali  Nebbia  Neve Forte  Precipitazioni Forti  Vento > 20 kt
SIGMETs :   Varie  Temporali  Ghiacco  Turbolenza  Onda orograficha  Ceneri Vulcaniche






- Altitudine del aeroporto : 1213 ft
- Codice IATA : SCQ


LEST - Santiago de Compostela

ULTIMO METAR :
  • 251800Z 32002KT 9999 FEW027 10/07 Q1017 NOSIG

METARs OBSOLETI :
  • 251730Z 34003KT 300V010 9999 FEW031 10/07 Q1016 NOSIG
  • 251700Z 34005KT 280V010 9999 SCT029 11/07 Q1016 NOSIG
  • 251630Z 26005KT 200V300 9999 FEW035 12/05 Q1016 NOSIG
  • 251600Z 25004KT 200V290 9999 FEW038 13/03 Q1016 NOSIG

TAF TAF LEST
Valido dal 25 a 18 ore il 26 a 18 ore UTC


251700Z 2518/2618 24006KT 9000 FEW030 TX10/2615Z TN06/2607Z
TEMPO 2518/2618 3000 -DZ BR BKN010
TEMPO 2522/2612 1000 DZ BCFG BKN003
PROB40
TEMPO 2523/2612 0350 DZ FG BKN001



MetMap, La meteo Aeronautica in un colpo d'occhio ! - Copyright ORBIFLY Dicembre 2007 - Disclaimer

ORBIFLY MET'MAP TEAM :

Programmazione e sviluppo : Alexandra Zaïnal
Concezione : Baudouin d'Aumeries
Aiuto per la programmazione : Marc-Olivier Méhu
Supporto tecnico e logistico : Manuel Goepfert
Aiuto per la traduzione : Arnaldo La Scala

Contatto : metmap@orbifly.com




FONTI E CREDITI :

   NOAA